Aeroporto :
LOGIN :

Iscrizione | Disclaimer

   EN    FR    IT 

 










Sommario :    VFR   VFR Marginale   IFR   IFR Intensivo   IFR Molto Intensivo
Visibilità : 
Base nubi : 
>= 8 km
>= 3000ft
5 / 8 km
1000 / 3000 ft
1500m / 5 km
500 / 1000 ft
800 / 1500m
200 / 500 ft
< 800m
< 200 ft
Simboli :   Temporali  Nebbia  Neve Forte  Precipitazioni Forti  Vento > 20 kt
SIGMETs :   Varie  Temporali  Ghiacco  Turbolenza  Onda orograficha  Ceneri Vulcaniche






- Altitudine del aeroporto : 121 ft
- Codice IATA : HUY


EGNJ - Humberside

ULTIMO METAR :
  • 190550Z AUTO 19008KT 9999 NCD 18/15 Q1018

METARs OBSOLETI :
  • 190520Z 20008KT CAVOK 18/15 Q1017
  • 190450Z AUTO 19009KT 9999 NCD 17/15 Q1017
  • 190420Z AUTO 20007KT 9999 NCD 17/14 Q1017
  • 190350Z AUTO 20008KT 9999 NCD 16/14 Q1017
  • 190320Z AUTO 19008KT 9999 NCD 17/15 Q1017
  • 190250Z AUTO 19010KT 9999 NCD 18/15 Q1017
  • 190220Z AUTO 19009KT 9999 NCD 17/15 Q1018
  • 190150Z AUTO 20008KT 9999 NCD 17/15 Q1018
  • 190120Z AUTO 20008KT 9999 NCD 18/15 Q1018

TAF TAF EGNJ
Valido dal 19 a 06 ore il 19 a 15 ore UTC


190458Z 1906/1915 20009KT 9999 FEW040
PROB30 1906/1908 8000
ATIS : +44 1652 682 020



MetMap, La meteo Aeronautica in un colpo d'occhio ! - Copyright ORBIFLY Dicembre 2007 - Disclaimer

ORBIFLY MET'MAP TEAM :

Programmazione e sviluppo : Alexandra Zaïnal
Concezione : Baudouin d'Aumeries
Supporto tecnico e logistico : Manuel Goepfert
Aiuto : Marc-Olivier Méhu
Aiuto per la traduzione : Arnaldo La Scala




FONTI E CREDITI :

   NOAA